createdAt,value
2018-12-30T00:01:10.530Z,99516.16
2018-12-30T00:03:40.152Z,99519.34
2018-12-30T00:06:09.970Z,99526.58
2018-12-30T00:08:39.633Z,99529.58
2018-12-30T00:11:09.653Z,99537.31
2018-12-30T00:13:39.174Z,99541.20
2018-12-30T00:16:09.169Z,99517.86
2018-12-30T00:18:38.583Z,99529.44
2018-12-30T00:21:09.399Z,99528.06
2018-12-30T00:23:41.384Z,99529.45
2018-12-30T00:26:10.782Z,99512.23
2018-12-30T00:28:40.198Z,99516.83
2018-12-30T00:31:09.535Z,99514.55
2018-12-30T00:33:39.012Z,99522.92
2018-12-30T00:36:08.281Z,99516.33
2018-12-30T00:38:38.152Z,99511.62
2018-12-30T00:41:08.466Z,99506.96
2018-12-30T00:43:37.913Z,99505.34
2018-12-30T00:46:07.083Z,99496.88
2018-12-30T00:48:36.051Z,99492.52
2018-12-30T00:51:05.338Z,99506.27
2018-12-30T00:53:34.449Z,99506.66
2018-12-30T00:56:03.694Z,99512.86
2018-12-30T00:58:33.084Z,99505.09
2018-12-30T01:01:02.220Z,99519.08
2018-12-30T01:03:31.424Z,99516.71
2018-12-30T01:06:01.364Z,99503.84
2018-12-30T01:08:30.848Z,99506.05
2018-12-30T01:11:00.862Z,99504.53
2018-12-30T01:13:30.520Z,99514.55
2018-12-30T01:15:59.623Z,99506.33
2018-12-30T01:18:28.584Z,99513.66
2018-12-30T01:20:57.606Z,99512.23
2018-12-30T01:23:27.186Z,99503.26
2018-12-30T01:25:57.211Z,99514.14
2018-12-30T01:28:28.055Z,99523.67
2018-12-30T01:30:58.792Z,99523.39
2018-12-30T01:33:28.792Z,99517.44
2018-12-30T01:35:58.557Z,99531.03
2018-12-30T01:38:28.239Z,99533.97
2018-12-30T01:40:57.956Z,99537.28
2018-12-30T01:43:27.929Z,99531.24
2018-12-30T01:45:57.022Z,99527.34
2018-12-30T01:48:26.493Z,99533.23
2018-12-30T01:50:55.841Z,99525.20
2018-12-30T01:53:25.324Z,99529.06
2018-12-30T01:55:54.794Z,99535.55
2018-12-30T01:58:23.890Z,99535.02
2018-12-30T02:00:52.849Z,99531.48
2018-12-30T02:03:22.139Z,99527.72
2018-12-30T02:05:51.539Z,99536.36
2018-12-30T02:08:20.518Z,99524.41
2018-12-30T02:10:50.001Z,99541.50
2018-12-30T02:13:19.611Z,99545.28
2018-12-30T02:15:48.870Z,99544.00
2018-12-30T02:18:17.839Z,99542.74
2018-12-30T02:20:46.836Z,99556.98
2018-12-30T02:23:15.713Z,99576.95
2018-12-30T02:25:45.484Z,99581.00
2018-12-30T02:28:14.520Z,99574.98
2018-12-30T02:30:43.499Z,99582.98
2018-12-30T02:33:12.799Z,99569.31
2018-12-30T02:35:41.701Z,99574.56
2018-12-30T02:38:10.882Z,99585.67
2018-12-30T02:40:40.064Z,99588.10
2018-12-30T02:43:09.675Z,99586.28
2018-12-30T02:49:08.050Z,99581.63
2018-12-30T02:51:37.242Z,99581.48
2018-12-30T02:54:06.777Z,99585.70
2018-12-30T02:56:35.973Z,99573.63
2018-12-30T02:59:04.896Z,99573.16
2018-12-30T03:01:33.784Z,99583.77
2018-12-30T03:04:03.066Z,99574.67
2018-12-30T03:06:32.667Z,99565.59
2018-12-30T03:09:02.178Z,99572.93
2018-12-30T03:11:31.261Z,99568.34
2018-12-30T03:14:00.284Z,99570.88
2018-12-30T03:16:29.589Z,99562.86
2018-12-30T03:18:58.884Z,99567.79
2018-12-30T03:21:28.074Z,99572.78
2018-12-30T03:23:56.940Z,99577.19
2018-12-30T03:26:26.001Z,99574.80
2018-12-30T03:28:55.652Z,99569.10
2018-12-30T03:31:24.956Z,99578.15
2018-12-30T03:33:53.982Z,99569.51
2018-12-30T03:36:23.555Z,99571.94
2018-12-30T03:38:53.334Z,99564.16
2018-12-30T03:41:22.680Z,99570.06
2018-12-30T03:43:51.864Z,99561.60
2018-12-30T03:46:21.476Z,99564.45
2018-12-30T03:48:50.379Z,99569.05
2018-12-30T03:51:19.641Z,99580.33
2018-12-30T03:53:49.177Z,99561.40
2018-12-30T03:56:18.513Z,99575.89
2018-12-30T03:58:47.871Z,99574.05
2018-12-30T04:01:16.845Z,99558.20
2018-12-30T04:03:46.075Z,99567.14
2018-12-30T04:06:15.138Z,99570.66
2018-12-30T04:08:44.824Z,99564.80
2018-12-30T04:11:14.688Z,99572.23
2018-12-30T04:13:43.581Z,99578.84
2018-12-30T04:16:13.501Z,99572.16
2018-12-30T04:18:42.794Z,99587.66
2018-12-30T04:21:11.944Z,99593.25
2018-12-30T04:23:40.985Z,99593.87
2018-12-30T04:26:09.983Z,99599.08
2018-12-30T04:28:39.992Z,99588.97
2018-12-30T04:31:09.298Z,99598.27
2018-12-30T04:33:38.930Z,99598.38
2018-12-30T04:36:07.959Z,99600.81
2018-12-30T04:38:37.615Z,99603.99
2018-12-30T04:41:07.220Z,99608.28
2018-12-30T04:43:36.196Z,99616.38
2018-12-30T04:46:05.141Z,99621.69
2018-12-30T04:48:34.390Z,99619.30
2018-12-30T04:51:04.002Z,99620.03
2018-12-30T04:53:32.933Z,99615.95
2018-12-30T04:56:02.098Z,99630.28
2018-12-30T04:58:31.078Z,99622.59
2018-12-30T05:01:00.312Z,99629.63
2018-12-30T05:03:30.098Z,99622.44
2018-12-30T05:05:59.819Z,99630.77
2018-12-30T05:08:29.368Z,99635.95
2018-12-30T05:10:59.185Z,99636.78
2018-12-30T05:13:28.557Z,99638.50
2018-12-30T05:15:57.867Z,99635.48
2018-12-30T05:18:27.818Z,99652.94
2018-12-30T05:20:57.068Z,99638.39
2018-12-30T05:23:26.663Z,99642.74
2018-12-30T05:25:55.982Z,99649.61
2018-12-30T05:28:24.973Z,99654.69
2018-12-30T05:30:54.459Z,99647.02
2018-12-30T05:33:23.756Z,99654.23
2018-12-30T05:35:53.203Z,99646.61
2018-12-30T05:38:23.127Z,99650.69
2018-12-30T05:40:52.006Z,99647.22
2018-12-30T05:43:21.577Z,99656.63
2018-12-30T05:45:50.861Z,99667.41
2018-12-30T05:48:19.890Z,99674.46
2018-12-30T05:50:49.425Z,99671.31
2018-12-30T05:53:18.246Z,99674.87
2018-12-30T05:55:47.389Z,99679.14
2018-12-30T05:58:17.066Z,99691.02
2018-12-30T06:00:46.998Z,99686.13
2018-12-30T06:03:16.485Z,99689.75
2018-12-30T06:05:45.371Z,99698.84
2018-12-30T06:08:14.331Z,99702.97
2018-12-30T06:10:43.234Z,99717.98
2018-12-30T06:13:12.697Z,99710.48
2018-12-30T06:15:41.951Z,99713.24
2018-12-30T06:18:11.159Z,99721.62
2018-12-30T06:20:40.459Z,99724.34
2018-12-30T06:23:09.636Z,99725.06
2018-12-30T06:25:38.952Z,99736.59
2018-12-30T06:28:08.459Z,99740.83
2018-12-30T06:30:37.371Z,99746.85
2018-12-30T06:33:06.398Z,99745.92
2018-12-30T06:35:35.794Z,99754.66
2018-12-30T06:38:05.306Z,99766.06
2018-12-30T06:40:34.821Z,99778.27
2018-12-30T06:43:04.304Z,99783.86
2018-12-30T06:45:33.473Z,99774.64
2018-12-30T06:48:02.848Z,99788.63
2018-12-30T06:50:31.753Z,99787.61
2018-12-30T06:53:00.659Z,99788.45
2018-12-30T06:55:30.753Z,99786.27
2018-12-30T06:58:00.201Z,99784.12
2018-12-30T07:00:29.598Z,99787.39
2018-12-30T07:02:58.883Z,99797.19
2018-12-30T07:05:28.718Z,99800.34
2018-12-30T07:07:57.707Z,99803.19
2018-12-30T07:10:27.664Z,99806.00
2018-12-30T07:12:57.396Z,99809.81
2018-12-30T07:15:26.300Z,99809.16
2018-12-30T07:17:55.728Z,99822.30
2018-12-30T07:20:24.796Z,99812.02
2018-12-30T07:22:54.082Z,99827.69
2018-12-30T07:25:23.053Z,99827.48
2018-12-30T07:27:52.689Z,99835.94
2018-12-30T07:30:22.009Z,99845.78
2018-12-30T07:32:51.427Z,99844.66
2018-12-30T07:35:20.705Z,99844.56
2018-12-30T07:37:50.185Z,99841.32
2018-12-30T07:40:19.779Z,99850.22
2018-12-30T07:42:49.049Z,99842.66
2018-12-30T07:45:18.627Z,99852.82
2018-12-30T07:47:47.938Z,99859.84
2018-12-30T07:50:17.044Z,99859.08
2018-12-30T07:52:46.622Z,99851.60
2018-12-30T07:55:15.932Z,99869.92
2018-12-30T07:57:45.218Z,99859.56
2018-12-30T08:00:14.826Z,99857.61
2018-12-30T08:02:44.135Z,99861.76
2018-12-30T08:05:13.432Z,99865.33
2018-12-30T08:07:42.609Z,99873.49
2018-12-30T08:10:11.558Z,99871.33
2018-12-30T08:12:40.855Z,99871.54
2018-12-30T08:15:10.056Z,99876.77
2018-12-30T08:17:39.100Z,99867.84
2018-12-30T08:20:08.622Z,99871.75
2018-12-30T08:22:38.322Z,99870.06
2018-12-30T08:25:07.549Z,99872.64
2018-12-30T08:27:36.863Z,99873.41
2018-12-30T08:30:06.089Z,99872.63
2018-12-30T08:32:35.090Z,99875.63
2018-12-30T08:35:04.130Z,99873.97
2018-12-30T08:37:34.036Z,99877.06
2018-12-30T08:40:03.229Z,99883.92
2018-12-30T08:42:32.561Z,99875.86
2018-12-30T08:45:01.464Z,99871.41
2018-12-30T08:47:30.616Z,99873.63
2018-12-30T08:49:59.646Z,99884.91
2018-12-30T08:52:28.913Z,99877.17
2018-12-30T08:54:57.933Z,99885.89
2018-12-30T08:57:27.491Z,99887.34
2018-12-30T08:59:57.428Z,99888.88
2018-12-30T09:02:26.412Z,99894.55
2018-12-30T09:04:57.762Z,99904.08
2018-12-30T09:07:26.815Z,99905.52
2018-12-30T09:09:56.822Z,99916.08
2018-12-30T09:12:26.186Z,99915.55
2018-12-30T09:14:55.792Z,99925.16
2018-12-30T09:17:25.125Z,99926.34
2018-12-30T09:19:54.274Z,99938.16
2018-12-30T09:22:24.059Z,99942.30
2018-12-30T09:24:53.970Z,99943.19
2018-12-30T09:27:23.735Z,99950.36
2018-12-30T09:29:53.135Z,99948.91
2018-12-30T09:32:22.841Z,99961.82
2018-12-30T09:34:52.343Z,99954.23
2018-12-30T09:37:21.765Z,99958.61
2018-12-30T09:39:51.246Z,99959.12
2018-12-30T09:42:20.322Z,99957.84
2018-12-30T09:44:49.859Z,99956.34
2018-12-30T09:47:19.181Z,99955.22
2018-12-30T09:49:48.391Z,99948.67
2018-12-30T09:52:17.368Z,99964.80
2018-12-30T09:54:46.949Z,99963.03
2018-12-30T09:57:16.587Z,99964.08
2018-12-30T09:59:46.119Z,99961.78
2018-12-30T10:02:16.871Z,99969.61
2018-12-30T10:04:46.967Z,99960.59
2018-12-30T10:07:16.415Z,99956.87
2018-12-30T10:09:45.726Z,99969.84
2018-12-30T10:12:15.158Z,99977.95
2018-12-30T10:14:46.173Z,99983.55
2018-12-30T10:17:15.365Z,99980.97
2018-12-30T10:19:44.755Z,99973.77
2018-12-30T10:22:14.246Z,99974.98
2018-12-30T10:24:43.933Z,99972.20
2018-12-30T10:27:13.334Z,99973.50
2018-12-30T10:29:43.016Z,99974.08
2018-12-30T10:32:12.021Z,99977.77
2018-12-30T10:34:41.710Z,99977.80
2018-12-30T10:37:11.005Z,99970.66
2018-12-30T10:39:40.398Z,99959.48
2018-12-30T10:42:09.526Z,99957.54
2018-12-30T10:44:39.232Z,99970.06
2018-12-30T10:47:08.619Z,99961.67
2018-12-30T10:49:38.120Z,99960.56
2018-12-30T10:52:07.421Z,99962.53
2018-12-30T10:54:36.720Z,99969.01
2018-12-30T10:57:06.792Z,99972.30
2018-12-30T10:59:36.737Z,99966.38
2018-12-30T11:02:06.520Z,99986.83
2018-12-30T11:04:36.694Z,99980.95
2018-12-30T11:07:06.096Z,99968.53
2018-12-30T11:09:35.163Z,99962.20
2018-12-30T11:12:07.003Z,99961.66
2018-12-30T11:14:37.191Z,99967.91
2018-12-30T11:17:06.274Z,99974.31
2018-12-30T11:19:36.210Z,99967.33
2018-12-30T11:22:05.841Z,99959.08
2018-12-30T11:24:34.975Z,99949.41
2018-12-30T11:27:04.233Z,99941.34
2018-12-30T11:29:35.184Z,99946.62
2018-12-30T11:32:04.300Z,99943.94
2018-12-30T11:34:33.816Z,99951.91
2018-12-30T11:37:03.128Z,99937.16
2018-12-30T11:39:32.360Z,99941.98
2018-12-30T11:42:01.952Z,99936.12
2018-12-30T11:44:31.405Z,99928.38
2018-12-30T11:47:02.108Z,99932.73
2018-12-30T11:49:31.879Z,99938.26
2018-12-30T11:52:00.849Z,99943.31
2018-12-30T11:54:29.901Z,99951.53
2018-12-30T11:56:59.189Z,99951.48
2018-12-30T11:59:29.601Z,99949.52
2018-12-30T12:01:58.983Z,99954.14
2018-12-30T12:04:28.175Z,99958.97
2018-12-30T12:06:57.344Z,99958.36
2018-12-30T12:09:26.681Z,99959.78
2018-12-30T12:11:56.595Z,99955.73
2018-12-30T12:14:25.923Z,99957.31
2018-12-30T12:16:55.062Z,99974.73
2018-12-30T12:19:24.900Z,99967.47
2018-12-30T12:21:54.309Z,99967.88
2018-12-30T12:24:24.562Z,99966.14
2018-12-30T12:26:53.721Z,99964.10
2018-12-30T12:29:23.654Z,99966.77
2018-12-30T12:31:52.805Z,99961.33
2018-12-30T12:34:22.448Z,99966.34
2018-12-30T12:36:51.348Z,99961.75
2018-12-30T12:39:20.254Z,99953.86
2018-12-30T12:41:49.234Z,99947.90
2018-12-30T12:44:18.740Z,99941.55
2018-12-30T12:46:48.320Z,99958.48
2018-12-30T12:49:17.323Z,99950.98
2018-12-30T12:51:46.275Z,99935.87
2018-12-30T12:54:15.248Z,99949.32
2018-12-30T12:56:44.180Z,99949.67
2018-12-30T12:59:13.261Z,99956.41
2018-12-30T13:01:42.610Z,99953.26
2018-12-30T13:04:12.170Z,99951.39
2018-12-30T13:06:41.147Z,99969.41
2018-12-30T13:09:10.402Z,99966.25
2018-12-30T13:11:40.052Z,99965.78
2018-12-30T13:14:09.506Z,99968.67
2018-12-30T13:16:38.824Z,99967.02
2018-12-30T13:19:08.528Z,99968.00
2018-12-30T13:21:37.448Z,99968.27
2018-12-30T13:24:06.819Z,99971.96
2018-12-30T13:26:36.237Z,99971.91
2018-12-30T13:29:05.549Z,99966.73
2018-12-30T13:31:34.831Z,99960.73
2018-12-30T13:34:03.828Z,99951.38
2018-12-30T13:36:33.665Z,99956.66
2018-12-30T13:39:02.940Z,99953.82
2018-12-30T13:41:32.568Z,99970.70
2018-12-30T13:44:02.221Z,99980.36
2018-12-30T13:46:31.228Z,99959.67
2018-12-30T13:49:00.161Z,99968.09
2018-12-30T13:51:29.164Z,99970.51
2018-12-30T13:53:58.036Z,99962.27
2018-12-30T13:56:27.190Z,99968.60
2018-12-30T13:58:56.828Z,99957.27
2018-12-30T14:01:26.279Z,99962.38
2018-12-30T14:03:55.276Z,99970.23
2018-12-30T14:06:24.237Z,99966.52
2018-12-30T14:08:53.393Z,99957.73
2018-12-30T14:11:22.620Z,99966.77
2018-12-30T14:13:51.834Z,99956.81
2018-12-30T14:16:21.414Z,99953.50
2018-12-30T14:18:51.609Z,99951.14
2018-12-30T14:21:20.682Z,99965.88
2018-12-30T14:23:49.998Z,99961.90
2018-12-30T14:26:19.021Z,99958.50
2018-12-30T14:28:50.221Z,99964.61
2018-12-30T14:31:19.215Z,99966.86
2018-12-30T14:33:48.641Z,99970.82
2018-12-30T14:36:18.302Z,99967.97
2018-12-30T14:38:47.488Z,99961.70
2018-12-30T14:41:16.773Z,99968.04
2018-12-30T14:43:46.193Z,99963.02
2018-12-30T14:46:15.596Z,99969.45
2018-12-30T14:48:45.204Z,99977.66
2018-12-30T14:51:14.507Z,99972.24
2018-12-30T14:53:44.214Z,99978.44
2018-12-30T14:56:13.171Z,99982.39
2018-12-30T14:58:42.806Z,99976.15
2018-12-30T15:01:15.012Z,99989.45
2018-12-30T15:03:43.212Z,99999.16
2018-12-30T15:06:12.276Z,99999.23
2018-12-30T15:08:41.955Z,99998.58
2018-12-30T15:11:11.253Z,99998.31
2018-12-30T15:13:40.752Z,99995.33
2018-12-30T15:16:10.179Z,99999.56
2018-12-30T15:18:39.470Z,100014.94
2018-12-30T15:21:09.449Z,100019.63
2018-12-30T15:23:38.765Z,100027.30
2018-12-30T15:26:07.766Z,100017.45
2018-12-30T15:28:37.165Z,100025.41
2018-12-30T15:31:06.799Z,100019.44
2018-12-30T15:33:36.490Z,100011.86
2018-12-30T15:36:05.722Z,100012.32
2018-12-30T15:38:35.297Z,100021.66
2018-12-30T15:41:04.896Z,100016.29
2018-12-30T15:43:34.258Z,100011.86
2018-12-30T15:46:03.306Z,100010.61
2018-12-30T15:48:32.289Z,100019.94
2018-12-30T15:51:01.503Z,100011.81
2018-12-30T15:53:30.902Z,100006.71
2018-12-30T15:56:00.105Z,100006.17
2018-12-30T15:58:29.650Z,100013.75
2018-12-30T16:00:59.012Z,100013.65
2018-12-30T16:03:28.087Z,100022.09
2018-12-30T16:05:57.872Z,100029.30
2018-12-30T16:08:27.336Z,100045.34
2018-12-30T16:10:56.463Z,100050.08
2018-12-30T16:13:25.319Z,100051.48
2018-12-30T16:15:54.423Z,100050.16
2018-12-30T16:18:28.195Z,100040.93
2018-12-30T16:20:57.116Z,100040.06
2018-12-30T16:23:26.573Z,100030.91
2018-12-30T16:25:55.891Z,100030.55
2018-12-30T16:28:24.981Z,100031.98
2018-12-30T16:30:54.593Z,100030.84
2018-12-30T16:33:23.569Z,100034.75
2018-12-30T16:35:53.022Z,100030.48
2018-12-30T16:38:22.376Z,100023.51
2018-12-30T16:40:51.698Z,100020.33
2018-12-30T16:43:21.154Z,100017.91
2018-12-30T16:45:50.265Z,100014.19
2018-12-30T16:48:19.596Z,100008.34
2018-12-30T16:50:48.611Z,100005.58
2018-12-30T16:53:17.998Z,100003.86
2018-12-30T16:55:47.188Z,100002.76
2018-12-30T16:58:16.187Z,99987.98
2018-12-30T17:00:45.379Z,99990.60
2018-12-30T17:03:14.788Z,99978.31
2018-12-30T17:05:43.876Z,99982.53
2018-12-30T17:08:13.563Z,99990.59
2018-12-30T17:10:42.626Z,99994.20
2018-12-30T17:13:11.515Z,99998.45
2018-12-30T17:15:40.657Z,100009.33
2018-12-30T17:18:09.682Z,100020.25
2018-12-30T17:20:38.659Z,100011.72
2018-12-30T17:23:07.954Z,100000.17
2018-12-30T17:25:43.034Z,99996.95
2018-12-30T17:28:08.411Z,100002.35
2018-12-30T17:30:37.425Z,100013.22
2018-12-30T17:33:06.368Z,100012.98
2018-12-30T17:35:36.506Z,100014.45
2018-12-30T17:38:05.571Z,100032.45
2018-12-30T17:40:38.682Z,100032.41
2018-12-30T17:43:05.690Z,100030.62
2018-12-30T17:45:34.946Z,100025.22
2018-12-30T17:48:04.537Z,100024.69
2018-12-30T17:50:33.943Z,100037.19
2018-12-30T17:53:03.573Z,100034.41
2018-12-30T17:55:32.511Z,100016.41
2018-12-30T17:58:02.775Z,100021.81
2018-12-30T18:00:31.910Z,100031.47
2018-12-30T18:03:01.352Z,100025.84
2018-12-30T18:05:30.775Z,100018.30
2018-12-30T18:08:00.330Z,100038.04
2018-12-30T18:10:29.902Z,100041.65
2018-12-30T18:12:59.697Z,100029.73
2018-12-30T18:15:29.107Z,100025.28
2018-12-30T18:17:58.258Z,100014.80
2018-12-30T18:20:27.588Z,100025.14
2018-12-30T18:22:56.835Z,100034.86
2018-12-30T18:25:26.219Z,100037.17
2018-12-30T18:27:56.448Z,100031.05
2018-12-30T18:30:25.438Z,100030.98
2018-12-30T18:32:55.249Z,100038.27
2018-12-30T18:35:25.457Z,100030.30
2018-12-30T18:37:55.278Z,100025.75
2018-12-30T18:40:25.080Z,100023.14
2018-12-30T18:42:54.974Z,100005.34
2018-12-30T18:45:24.476Z,100000.14
2018-12-30T18:47:53.816Z,99996.13
2018-12-30T18:50:22.947Z,100001.98
2018-12-30T18:52:52.050Z,100012.55
2018-12-30T18:55:21.031Z,100025.12
2018-12-30T18:57:50.127Z,100021.92
2018-12-30T19:00:20.022Z,100032.23
2018-12-30T19:02:49.356Z,100029.17
2018-12-30T19:05:19.266Z,100030.28
2018-12-30T19:07:49.043Z,100025.59
2018-12-30T19:10:18.742Z,100016.88
2018-12-30T19:12:48.425Z,100012.15
2018-12-30T19:15:18.243Z,100004.84
2018-12-30T19:17:47.771Z,100008.82
2018-12-30T19:20:16.849Z,100010.08
2018-12-30T19:22:46.010Z,100015.22
2018-12-30T19:25:15.250Z,100011.91
2018-12-30T19:27:44.287Z,100005.66
2018-12-30T19:30:13.398Z,100007.53
2018-12-30T19:32:42.637Z,100006.98
2018-12-30T19:35:11.859Z,100000.30
2018-12-30T19:37:41.741Z,100006.90
2018-12-30T19:40:11.901Z,100001.04
2018-12-30T19:42:40.891Z,100000.62
2018-12-30T19:45:10.236Z,99997.39
2018-12-30T19:47:39.629Z,100003.81
2018-12-30T19:50:08.591Z,100002.13
2018-12-30T19:52:37.858Z,99998.96
2018-12-30T19:55:07.268Z,99994.42
2018-12-30T19:57:37.037Z,99987.60
2018-12-30T20:00:09.498Z,99985.55
2018-12-30T20:02:39.076Z,99990.39
2018-12-30T20:05:08.469Z,99991.00
2018-12-30T20:07:37.504Z,99995.73
2018-12-30T20:10:07.112Z,100001.21
2018-12-30T20:12:36.094Z,100000.82
2018-12-30T20:15:05.800Z,100007.56
2018-12-30T20:17:35.132Z,100007.16
2018-12-30T20:20:04.508Z,100010.92
2018-12-30T20:22:33.776Z,100000.60
2018-12-30T20:25:03.164Z,99998.84
2018-12-30T20:27:32.292Z,99997.77
2018-12-30T20:30:02.086Z,100001.61
2018-12-30T20:32:31.667Z,99996.47
2018-12-30T20:35:00.851Z,99989.84
2018-12-30T20:37:30.075Z,99988.23
2018-12-30T20:40:00.158Z,99986.55
2018-12-30T20:42:29.605Z,99990.42
2018-12-30T20:44:59.559Z,99979.42
2018-12-30T20:47:28.818Z,99989.34
2018-12-30T20:49:58.836Z,99988.36
2018-12-30T20:52:27.891Z,99984.59
2018-12-30T20:54:57.337Z,99977.44
2018-12-30T20:57:26.862Z,99980.03
2018-12-30T20:59:56.350Z,99984.27
2018-12-30T21:02:26.056Z,99981.02
2018-12-30T21:04:55.940Z,99980.98
2018-12-30T21:07:25.680Z,99982.02
2018-12-30T21:09:54.701Z,99979.98
2018-12-30T21:12:23.981Z,99967.05
2018-12-30T21:14:52.984Z,99967.42
2018-12-30T21:17:23.081Z,99963.59
2018-12-30T21:19:52.687Z,99956.53
2018-12-30T21:22:22.468Z,99950.23
2018-12-30T21:24:53.325Z,99963.66
2018-12-30T21:27:22.763Z,99964.34
2018-12-30T21:29:52.041Z,99968.34
2018-12-30T21:32:21.469Z,99963.58
2018-12-30T21:34:50.603Z,99967.06
2018-12-30T21:37:20.120Z,99965.30
2018-12-30T21:39:49.451Z,99960.20
2018-12-30T21:42:18.801Z,99957.28
2018-12-30T21:44:48.429Z,99956.81
2018-12-30T21:47:17.761Z,99950.11
2018-12-30T21:49:47.610Z,99946.03
2018-12-30T21:52:17.530Z,99947.92
2018-12-30T21:54:46.868Z,99938.78
2018-12-30T21:57:16.600Z,99939.91
2018-12-30T21:59:46.747Z,99948.36
2018-12-30T22:02:15.717Z,99940.77
2018-12-30T22:04:44.921Z,99939.66
2018-12-30T22:07:15.084Z,99938.20
2018-12-30T22:09:44.537Z,99948.69
2018-12-30T22:12:13.850Z,99949.39
2018-12-30T22:14:43.235Z,99949.16
2018-12-30T22:17:12.449Z,99942.88
2018-12-30T22:19:41.873Z,99938.02
2018-12-30T22:22:10.860Z,99929.74
2018-12-30T22:24:40.453Z,99929.77
2018-12-30T22:27:10.190Z,99931.91
2018-12-30T22:29:39.204Z,99935.65
2018-12-30T22:32:08.759Z,99931.55
2018-12-30T22:34:38.069Z,99928.70
2018-12-30T22:37:07.200Z,99930.81
2018-12-30T22:39:37.490Z,99925.36
2018-12-30T22:42:06.496Z,99938.45
2018-12-30T22:44:36.236Z,99930.47
2018-12-30T22:47:05.598Z,99931.50
2018-12-30T22:49:34.789Z,99929.12
2018-12-30T22:52:04.178Z,99925.92
2018-12-30T22:54:33.572Z,99928.30
2018-12-30T22:57:03.307Z,99930.92
2018-12-30T22:59:32.805Z,99921.20
2018-12-30T23:02:02.525Z,99927.92
2018-12-30T23:04:31.512Z,99917.67
2018-12-30T23:07:00.681Z,99920.70
2018-12-30T23:09:30.204Z,99926.67
2018-12-30T23:11:59.506Z,99917.69
2018-12-30T23:14:29.226Z,99923.22
2018-12-30T23:16:58.539Z,99911.41
2018-12-30T23:19:27.661Z,99901.63
2018-12-30T23:21:57.372Z,99895.32
2018-12-30T23:24:26.755Z,99900.92
2018-12-30T23:26:55.800Z,99904.01
2018-12-30T23:29:24.792Z,99904.61
2018-12-30T23:31:54.821Z,99911.09
2018-12-30T23:34:24.634Z,99913.39
2018-12-30T23:36:54.055Z,99918.56
2018-12-30T23:39:23.859Z,99928.56
2018-12-30T23:41:53.584Z,99928.38
2018-12-30T23:44:23.900Z,99927.84
2018-12-30T23:46:53.298Z,99921.11
2018-12-30T23:49:25.656Z,99925.53
2018-12-30T23:51:55.010Z,99928.91
2018-12-30T23:54:24.606Z,99918.81
2018-12-30T23:56:55.714Z,99922.25
2018-12-30T23:59:25.221Z,99920.52
